Time;durP1;ratioP1;P1;durP2;ratioP2;P2;SDS_P1;SDS_P2;PMS_P1;PMS_P2;Temp;Humidity;BMP_temperature;BMP_pressure;BME280_temperature;BME280_humidity;BME280_pressure;Samples;Min_cycle;Max_cycle;Signal;HPM_P1;HPM_P2
2023/12/05 00:00:14;;;;;;;0.30;0.30;;;;;;;;;;6284487;28;20056;-76
2023/12/05 00:03:14;;;;;;;0.30;0.30;;;;;;;;;;6290046;28;20118;-76
2023/12/05 00:06:15;;;;;;;0.30;0.30;;;;;;;;;;6293238;28;20062;-76
2023/12/05 00:09:15;;;;;;;0.30;0.30;;;;;;;;;;6292791;28;20009;-76
2023/12/05 00:12:15;;;;;;;0.30;0.30;;;;;;;;;;6288266;28;20013;-76
2023/12/05 00:15:15;;;;;;;0.30;0.30;;;;;;;;;;6265408;28;20047;-75
2023/12/05 00:18:16;;;;;;;0.30;0.30;;;;;;;;;;6293232;28;20051;-76
2023/12/05 00:21:16;;;;;;;0.30;0.30;;;;;;;;;;6292557;28;20005;-76
2023/12/05 00:24:17;;;;;;;0.30;0.30;;;;;;;;;;6292712;28;20027;-74
2023/12/05 00:27:17;;;;;;;0.30;0.30;;;;;;;;;;6288554;28;20044;-74
2023/12/05 00:30:17;;;;;;;0.30;0.30;;;;;;;;;;6293019;28;20016;-74
2023/12/05 00:33:17;;;;;;;0.30;0.30;;;;;;;;;;6292370;28;20017;-74
2023/12/05 00:36:18;;;;;;;0.30;0.30;;;;;;;;;;6292185;28;20028;-74
2023/12/05 00:39:19;;;;;;;0.30;0.30;;;;;;;;;;6260418;28;20013;-74
2023/12/05 00:42:19;;;;;;;0.40;0.40;;;;;;;;;;6292085;28;20020;-74
2023/12/05 00:45:20;;;;;;;0.30;0.30;;;;;;;;;;6293299;28;20263;-74
2023/12/05 00:48:20;;;;;;;0.30;0.30;;;;;;;;;;6291567;28;20044;-74
2023/12/05 00:51:20;;;;;;;0.30;0.30;;;;;;;;;;6274542;28;20134;-74
2023/12/05 00:54:20;;;;;;;0.30;0.30;;;;;;;;;;6291400;28;20055;-74
2023/12/05 00:57:21;;;;;;;0.30;0.30;;;;;;;;;;6291982;28;20005;-74
2023/12/05 01:00:21;;;;;;;0.40;0.40;;;;;;;;;;6292862;28;20016;-74
2023/12/05 01:03:21;;;;;;;0.40;0.40;;;;;;;;;;6298863;28;20434;-74
2023/12/05 01:06:22;;;;;;;0.30;0.30;;;;;;;;;;6273724;28;20108;-74
2023/12/05 01:09:22;;;;;;;0.33;0.33;;;;;;;;;;6291543;28;20008;-74
2023/12/05 01:12:23;;;;;;;0.40;0.40;;;;;;;;;;6291448;28;20012;-74
2023/12/05 01:15:23;;;;;;;0.30;0.30;;;;;;;;;;6292006;28;20013;-74
2023/12/05 01:18:23;;;;;;;0.40;0.40;;;;;;;;;;6279413;28;20009;-74
2023/12/05 01:21:23;;;;;;;0.30;0.30;;;;;;;;;;6272981;28;20578;-74
2023/12/05 01:24:24;;;;;;;0.40;0.40;;;;;;;;;;6291949;28;20445;-74
2023/12/05 01:27:24;;;;;;;0.30;0.30;;;;;;;;;;6290096;28;20024;-74
2023/12/05 01:30:24;;;;;;;0.30;0.30;;;;;;;;;;6269360;28;20048;-74
2023/12/05 01:33:24;;;;;;;0.30;0.30;;;;;;;;;;6277894;28;20343;-74
2023/12/05 01:36:26;;;;;;;0.30;0.30;;;;;;;;;;6291427;28;20360;-74
2023/12/05 01:39:27;;;;;;;0.30;0.30;;;;;;;;;;6291494;28;20034;-74
2023/12/05 01:42:27;;;;;;;0.40;0.40;;;;;;;;;;6291321;28;20020;-74
2023/12/05 01:45:27;;;;;;;0.30;0.30;;;;;;;;;;6292009;28;20020;-74
2023/12/05 01:48:28;;;;;;;0.40;0.40;;;;;;;;;;6291739;28;20020;-74
2023/12/05 01:51:29;;;;;;;0.40;0.40;;;;;;;;;;6296848;28;20054;-76
2023/12/05 01:54:30;;;;;;;0.30;0.30;;;;;;;;;;6296651;28;20418;-76
2023/12/05 01:57:32;;;;;;;0.40;0.40;;;;;;;;;;6295897;28;20313;-76
2023/12/05 02:00:32;;;;;;;0.43;0.43;;;;;;;;;;6278725;28;20008;-76
2023/12/05 02:03:33;;;;;;;0.30;0.30;;;;;;;;;;6296917;28;20511;-74
2023/12/05 02:06:33;;;;;;;0.40;0.40;;;;;;;;;;6296143;28;20016;-74
2023/12/05 02:09:35;;;;;;;0.40;0.40;;;;;;;;;;6295702;28;20020;-74
2023/12/05 02:12:38;;;;;;;0.30;0.30;;;;;;;;;;6295391;28;20150;-75
2023/12/05 02:15:39;;;;;;;0.30;0.30;;;;;;;;;;6308892;28;20059;-74
2023/12/05 02:18:45;;;;;;;0.30;0.30;;;;;;;;;;6294967;28;20039;-74
2023/12/05 02:21:46;;;;;;;0.40;0.40;;;;;;;;;;6296015;28;20031;-74
2023/12/05 02:24:52;;;;;;;0.40;0.40;;;;;;;;;;6295476;28;20091;-74
2023/12/05 02:27:53;;;;;;;0.30;0.30;;;;;;;;;;6297535;28;20020;-74
2023/12/05 02:30:53;;;;;;;0.40;0.40;;;;;;;;;;6296565;28;20032;-74
2023/12/05 02:33:54;;;;;;;0.40;0.40;;;;;;;;;;6270960;28;20040;-74
2023/12/05 02:37:07;;;;;;;0.40;0.40;;;;;;;;;;6269120;28;20398;-74
2023/12/05 02:40:34;;;;;;;0.43;0.43;;;;;;;;;;6281262;28;20062;-76
2023/12/05 02:43:37;;;;;;;0.30;0.30;;;;;;;;;;6256685;28;20434;-76
2023/12/05 02:46:38;;;;;;;0.40;0.40;;;;;;;;;;6294747;28;20017;-77
2023/12/05 02:49:39;;;;;;;;;;;;;;;;;;6281616;28;20028;-74
2023/12/05 02:52:39;;;;;;;0.40;0.40;;;;;;;;;;6295099;28;20282;-74
2023/12/05 02:55:40;;;;;;;0.40;0.40;;;;;;;;;;6277192;28;20028;-74
2023/12/05 02:58:40;;;;;;;0.30;0.30;;;;;;;;;;6294587;28;20604;-74
2023/12/05 03:01:40;;;;;;;0.40;0.40;;;;;;;;;;6294831;28;20487;-74
2023/12/05 03:04:41;;;;;;;0.50;0.50;;;;;;;;;;6277851;28;20165;-74
2023/12/05 03:07:41;;;;;;;0.40;0.40;;;;;;;;;;6298796;28;20455;-74
2023/12/05 03:10:41;;;;;;;0.40;0.40;;;;;;;;;;6294310;28;20021;-74
2023/12/05 03:13:41;;;;;;;0.40;0.40;;;;;;;;;;6276830;28;20023;-76
2023/12/05 03:16:42;;;;;;;0.40;0.40;;;;;;;;;;6294223;28;20012;-76
2023/12/05 03:19:42;;;;;;;0.40;0.40;;;;;;;;;;6294433;28;20027;-76
2023/12/05 03:22:42;;;;;;;0.40;0.40;;;;;;;;;;6296779;28;20009;-74
2023/12/05 03:25:43;;;;;;;0.40;0.40;;;;;;;;;;6293110;28;20498;-74
2023/12/05 03:28:43;;;;;;;0.30;0.30;;;;;;;;;;6293803;28;20374;-74
2023/12/05 03:31:43;;;;;;;0.40;0.40;;;;;;;;;;6279938;28;20017;-74
2023/12/05 03:34:46;;;;;;;0.30;0.30;;;;;;;;;;6293936;28;20021;-74
2023/12/05 03:37:46;;;;;;;0.40;0.40;;;;;;;;;;6294443;28;20024;-74
2023/12/05 03:40:46;;;;;;;0.30;0.30;;;;;;;;;;6294072;28;20462;-74
2023/12/05 03:43:47;;;;;;;0.40;0.40;;;;;;;;;;6293329;28;20505;-74
2023/12/05 03:46:47;;;;;;;0.30;0.30;;;;;;;;;;6276277;28;20424;-74
2023/12/05 03:49:47;;;;;;;0.40;0.40;;;;;;;;;;6275748;28;20450;-74
2023/12/05 03:52:48;;;;;;;0.30;0.30;;;;;;;;;;6295426;28;20501;-74
2023/12/05 03:55:48;;;;;;;0.40;0.40;;;;;;;;;;6276008;28;20031;-74
2023/12/05 03:58:48;;;;;;;0.40;0.40;;;;;;;;;;6293409;28;20012;-74
2023/12/05 04:01:48;;;;;;;0.30;0.30;;;;;;;;;;6288248;28;20024;-74
2023/12/05 04:04:49;;;;;;;0.30;0.30;;;;;;;;;;6293271;28;20041;-74
2023/12/05 04:07:50;;;;;;;0.30;0.30;;;;;;;;;;6293479;28;20051;-74
2023/12/05 04:10:50;;;;;;;0.30;0.30;;;;;;;;;;6293069;28;20538;-74
2023/12/05 04:13:50;;;;;;;0.43;0.43;;;;;;;;;;6293252;28;20477;-74
2023/12/05 04:16:51;;;;;;;0.30;0.30;;;;;;;;;;6292804;28;20039;-74
2023/12/05 04:19:51;;;;;;;0.30;0.30;;;;;;;;;;6274749;28;20020;-74
2023/12/05 04:22:51;;;;;;;0.40;0.40;;;;;;;;;;6292805;28;20154;-74
2023/12/05 04:25:51;;;;;;;0.30;0.30;;;;;;;;;;6292690;28;20459;-74
2023/12/05 04:28:52;;;;;;;0.30;0.30;;;;;;;;;;6291754;28;20111;-74
2023/12/05 04:31:53;;;;;;;0.30;0.30;;;;;;;;;;6287288;28;20100;-78
2023/12/05 04:34:53;;;;;;;0.30;0.30;;;;;;;;;;6281674;28;20367;-78
2023/12/05 04:37:53;;;;;;;0.30;0.30;;;;;;;;;;6281354;28;20020;-78
2023/12/05 04:40:53;;;;;;;0.30;0.30;;;;;;;;;;6307384;28;20039;-78
2023/12/05 04:43:54;;;;;;;0.30;0.30;;;;;;;;;;6273928;28;20111;-75
2023/12/05 04:46:54;;;;;;;0.30;0.30;;;;;;;;;;6274191;28;20032;-75
2023/12/05 04:49:54;;;;;;;0.30;0.30;;;;;;;;;;6292708;28;20024;-75
2023/12/05 04:52:55;;;;;;;0.30;0.30;;;;;;;;;;6291568;28;20025;-75
2023/12/05 04:55:55;;;;;;;0.40;0.40;;;;;;;;;;6292005;28;20024;-75
2023/12/05 04:58:55;;;;;;;0.30;0.30;;;;;;;;;;6273919;28;20058;-74
2023/12/05 05:01:55;;;;;;;0.30;0.30;;;;;;;;;;6282353;28;20021;-75
2023/12/05 05:04:56;;;;;;;0.40;0.40;;;;;;;;;;6284782;28;20577;-74
2023/12/05 05:07:56;;;;;;;0.30;0.30;;;;;;;;;;6294199;28;20040;-74
2023/12/05 05:10:56;;;;;;;0.30;0.30;;;;;;;;;;6292089;28;20024;-74
2023/12/05 05:13:57;;;;;;;0.30;0.30;;;;;;;;;;6291901;28;20021;-75
2023/12/05 05:16:57;;;;;;;0.30;0.30;;;;;;;;;;6291993;28;20421;-73
2023/12/05 05:19:57;;;;;;;0.30;0.30;;;;;;;;;;6291459;28;20475;-75
2023/12/05 05:22:57;;;;;;;0.40;0.40;;;;;;;;;;6291818;28;20090;-74
2023/12/05 05:25:58;;;;;;;0.30;0.30;;;;;;;;;;6287359;28;20025;-75
2023/12/05 05:28:58;;;;;;;0.30;0.30;;;;;;;;;;6292220;28;20107;-75
2023/12/05 05:31:58;;;;;;;0.30;0.30;;;;;;;;;;6291563;28;20082;-75
2023/12/05 05:34:59;;;;;;;0.30;0.30;;;;;;;;;;6291778;28;20383;-75
2023/12/05 05:37:59;;;;;;;0.30;0.30;;;;;;;;;;6291361;28;20016;-75
2023/12/05 05:41:06;;;;;;;0.33;0.33;;;;;;;;;;6274355;28;20024;-75
2023/12/05 05:44:06;;;;;;;0.30;0.30;;;;;;;;;;6298017;28;20073;-75
2023/12/05 05:47:06;;;;;;;0.30;0.30;;;;;;;;;;6296660;28;20393;-75
2023/12/05 05:50:08;;;;;;;0.30;0.30;;;;;;;;;;6273619;28;20046;-75
2023/12/05 05:53:08;;;;;;;0.30;0.30;;;;;;;;;;6291753;28;20375;-78
2023/12/05 05:56:08;;;;;;;0.30;0.30;;;;;;;;;;6290711;28;20025;-78
2023/12/05 05:59:09;;;;;;;0.40;0.40;;;;;;;;;;6291411;28;20020;-78
2023/12/05 06:02:10;;;;;;;0.30;0.30;;;;;;;;;;6291208;28;20498;-75
2023/12/05 06:05:11;;;;;;;;;;;;;;;;;;6286767;28;20103;-75
2023/12/05 06:08:11;;;;;;;0.30;0.30;;;;;;;;;;6286552;28;20274;-75
2023/12/05 06:11:12;;;;;;;0.40;0.40;;;;;;;;;;6291127;28;20384;-75
2023/12/05 06:14:12;;;;;;;0.30;0.30;;;;;;;;;;6304710;28;20035;-75
2023/12/05 06:17:13;;;;;;;0.30;0.30;;;;;;;;;;6285384;28;20421;-75
2023/12/05 06:20:13;;;;;;;0.30;0.30;;;;;;;;;;6293637;28;20104;-75
2023/12/05 06:23:14;;;;;;;0.30;0.30;;;;;;;;;;6272678;28;20506;-75
2023/12/05 06:26:14;;;;;;;0.40;0.40;;;;;;;;;;6290030;28;20027;-76
2023/12/05 06:29:14;;;;;;;0.30;0.30;;;;;;;;;;6293610;28;20103;-75
2023/12/05 06:32:14;;;;;;;0.30;0.30;;;;;;;;;;6290388;28;20043;-75
2023/12/05 06:35:15;;;;;;;0.30;0.30;;;;;;;;;;6292659;28;20033;-74
2023/12/05 06:38:15;;;;;;;0.30;0.30;;;;;;;;;;6306107;28;20385;-74
2023/12/05 06:41:15;;;;;;;0.40;0.40;;;;;;;;;;6275544;28;20399;-74
2023/12/05 06:44:16;;;;;;;0.30;0.30;;;;;;;;;;6276526;28;20035;-74
2023/12/05 06:47:16;;;;;;;0.30;0.30;;;;;;;;;;6275180;28;20017;-74
2023/12/05 06:50:17;;;;;;;0.33;0.33;;;;;;;;;;6283254;28;20363;-74
2023/12/05 06:53:17;;;;;;;0.30;0.30;;;;;;;;;;6276530;28;20482;-75
2023/12/05 06:56:18;;;;;;;0.30;0.30;;;;;;;;;;6294971;28;20021;-74
2023/12/05 06:59:19;;;;;;;0.30;0.30;;;;;;;;;;6292122;28;20016;-74
2023/12/05 07:02:19;;;;;;;0.30;0.30;;;;;;;;;;6292607;28;20009;-75
2023/12/05 07:05:20;;;;;;;0.30;0.30;;;;;;;;;;6285518;28;20071;-74
2023/12/05 07:08:21;;;;;;;0.30;0.30;;;;;;;;;;6292366;28;20900;-75
2023/12/05 07:11:24;;;;;;;0.30;0.30;;;;;;;;;;6294242;28;20470;-76
2023/12/05 07:14:24;;;;;;;0.30;0.30;;;;;;;;;;6293775;28;20172;-79
2023/12/05 07:17:24;;;;;;;0.30;0.30;;;;;;;;;;6298889;28;20035;-79
2023/12/05 07:20:25;;;;;;;0.40;0.40;;;;;;;;;;6296803;28;20028;-78
2023/12/05 07:23:25;;;;;;;0.30;0.30;;;;;;;;;;6281427;28;20505;-79
2023/12/05 07:26:25;;;;;;;0.30;0.30;;;;;;;;;;6299450;28;20111;-78
2023/12/05 07:29:26;;;;;;;0.30;0.30;;;;;;;;;;6296049;28;20112;-78
2023/12/05 07:32:26;;;;;;;0.33;0.33;;;;;;;;;;6292183;28;20021;-78
2023/12/05 07:35:26;;;;;;;0.30;0.30;;;;;;;;;;6292240;28;20291;-79
2023/12/05 07:38:26;;;;;;;0.30;0.30;;;;;;;;;;6297901;28;20154;-78
2023/12/05 07:41:27;;;;;;;0.30;0.30;;;;;;;;;;6281330;28;20450;-78
2023/12/05 07:44:27;;;;;;;0.30;0.30;;;;;;;;;;6281729;28;20444;-78
2023/12/05 07:47:27;;;;;;;0.30;0.30;;;;;;;;;;6291056;28;20538;-78
2023/12/05 07:50:28;;;;;;;0.30;0.30;;;;;;;;;;6303897;28;20044;-78
2023/12/05 07:53:28;;;;;;;0.33;0.33;;;;;;;;;;6291298;28;20024;-78
2023/12/05 07:56:28;;;;;;;0.30;0.30;;;;;;;;;;6269519;28;20040;-78
2023/12/05 07:59:29;;;;;;;0.30;0.30;;;;;;;;;;6290791;28;20368;-78
2023/12/05 08:02:29;;;;;;;0.30;0.30;;;;;;;;;;6292988;28;20430;-79
2023/12/05 08:05:29;;;;;;;0.30;0.30;;;;;;;;;;6294757;28;20048;-78
2023/12/05 08:08:30;;;;;;;0.30;0.30;;;;;;;;;;6299086;28;20033;-78
2023/12/05 08:11:30;;;;;;;0.30;0.30;;;;;;;;;;6298643;28;20024;-75
2023/12/05 08:14:30;;;;;;;0.30;0.30;;;;;;;;;;6294235;28;20500;-75
2023/12/05 08:17:31;;;;;;;0.30;0.30;;;;;;;;;;6270604;28;20415;-75
2023/12/05 08:20:31;;;;;;;0.20;0.20;;;;;;;;;;6292472;28;20024;-75
2023/12/05 08:23:31;;;;;;;0.30;0.30;;;;;;;;;;6294540;28;20031;-75
2023/12/05 08:26:32;;;;;;;0.30;0.30;;;;;;;;;;6292362;28;20035;-75
2023/12/05 08:29:32;;;;;;;0.30;0.30;;;;;;;;;;6302671;28;20029;-75
2023/12/05 08:32:32;;;;;;;0.30;0.30;;;;;;;;;;6291552;28;20032;-75
2023/12/05 08:35:33;;;;;;;0.30;0.30;;;;;;;;;;6305949;28;20497;-75
2023/12/05 08:38:33;;;;;;;0.30;0.30;;;;;;;;;;6295768;28;20093;-75
2023/12/05 08:41:33;;;;;;;0.30;0.30;;;;;;;;;;6286333;28;20474;-75
2023/12/05 08:44:33;;;;;;;0.30;0.30;;;;;;;;;;6292502;28;20450;-74
2023/12/05 08:47:34;;;;;;;0.30;0.30;;;;;;;;;;6292144;28;20513;-74
2023/12/05 08:50:34;;;;;;;0.20;0.20;;;;;;;;;;6295060;28;20508;-74
2023/12/05 08:53:35;;;;;;;0.20;0.20;;;;;;;;;;6293608;28;20076;-74
2023/12/05 08:56:35;;;;;;;0.20;0.20;;;;;;;;;;6292041;28;20498;-74
2023/12/05 08:59:35;;;;;;;0.20;0.20;;;;;;;;;;6307313;28;20016;-74
2023/12/05 09:02:36;;;;;;;0.30;0.30;;;;;;;;;;6293530;28;20051;-74
2023/12/05 09:05:36;;;;;;;0.20;0.20;;;;;;;;;;6273414;28;20514;-74
2023/12/05 09:08:36;;;;;;;0.20;0.20;;;;;;;;;;6292487;28;20059;-74
2023/12/05 09:11:37;;;;;;;0.30;0.30;;;;;;;;;;6291451;28;20471;-73
2023/12/05 09:14:37;;;;;;;0.20;0.20;;;;;;;;;;6296964;28;20043;-73
2023/12/05 09:17:38;;;;;;;0.20;0.20;;;;;;;;;;6291071;28;20402;-74
2023/12/05 09:20:38;;;;;;;0.20;0.20;;;;;;;;;;6286399;28;20020;-73
2023/12/05 09:23:39;;;;;;;0.20;0.20;;;;;;;;;;6292136;28;20124;-86
2023/12/05 09:26:39;;;;;;;0.30;0.30;;;;;;;;;;6290194;28;20033;-87
2023/12/05 09:29:39;;;;;;;0.20;0.20;;;;;;;;;;6291571;28;20024;-87
2023/12/05 09:32:39;;;;;;;0.20;0.20;;;;;;;;;;6292452;28;20016;-86
2023/12/05 09:35:40;;;;;;;0.20;0.20;;;;;;;;;;6291079;28;20102;-86
2023/12/05 09:38:40;;;;;;;0.20;0.20;;;;;;;;;;6291844;28;20107;-85
2023/12/05 09:41:43;;;;;;;0.20;0.20;;;;;;;;;;6287116;28;20024;-84
2023/12/05 09:44:45;;;;;;;0.20;0.20;;;;;;;;;;6306120;28;20028;-84
2023/12/05 09:47:46;;;;;;;0.20;0.20;;;;;;;;;;6291112;28;20081;-84
2023/12/05 09:50:46;;;;;;;0.20;0.20;;;;;;;;;;6291064;28;20028;-83
2023/12/05 09:53:47;;;;;;;0.20;0.20;;;;;;;;;;6290932;28;20066;-83
2023/12/05 09:56:48;;;;;;;0.20;0.20;;;;;;;;;;6277711;28;20074;-82
2023/12/05 09:59:48;;;;;;;0.20;0.20;;;;;;;;;;6290273;28;20082;-82
2023/12/05 10:02:49;;;;;;;0.20;0.20;;;;;;;;;;6272706;28;20016;-81
2023/12/05 10:05:50;;;;;;;0.20;0.20;;;;;;;;;;6291905;28;20020;-81
2023/12/05 10:08:51;;;;;;;0.20;0.20;;;;;;;;;;6290961;28;20273;-81
2023/12/05 10:11:52;;;;;;;0.20;0.20;;;;;;;;;;6296931;28;20390;-81
2023/12/05 10:14:53;;;;;;;0.20;0.20;;;;;;;;;;6297906;28;20039;-81
2023/12/05 10:17:54;;;;;;;0.20;0.20;;;;;;;;;;6298880;28;20028;-80
2023/12/05 10:20:54;;;;;;;0.20;0.20;;;;;;;;;;6293547;28;20028;-81
2023/12/05 10:23:54;;;;;;;0.20;0.20;;;;;;;;;;6294037;28;20470;-81
2023/12/05 10:26:57;;;;;;;0.20;0.20;;;;;;;;;;6294534;28;20059;-80
2023/12/05 10:29:57;;;;;;;0.20;0.20;;;;;;;;;;6272398;28;20032;-80
2023/12/05 10:33:08;;;;;;;0.20;0.20;;;;;;;;;;6297682;28;20024;-80
2023/12/05 10:36:11;;;;;;;0.20;0.20;;;;;;;;;;6294344;28;20471;-80
2023/12/05 10:39:11;;;;;;;0.20;0.20;;;;;;;;;;6281369;28;20402;-79
2023/12/05 10:42:12;;;;;;;0.20;0.20;;;;;;;;;;6289292;28;20017;-80
2023/12/05 10:45:12;;;;;;;0.20;0.20;;;;;;;;;;6294211;28;20480;-79
2023/12/05 10:48:13;;;;;;;0.20;0.20;;;;;;;;;;6303242;28;20028;-79
2023/12/05 10:51:13;;;;;;;0.20;0.20;;;;;;;;;;6294668;28;20505;-79
2023/12/05 10:54:14;;;;;;;0.20;0.20;;;;;;;;;;6294379;28;20032;-78
2023/12/05 10:57:14;;;;;;;0.23;0.23;;;;;;;;;;6291768;28;20116;-79
2023/12/05 11:00:15;;;;;;;0.20;0.20;;;;;;;;;;6296112;28;20024;-78
2023/12/05 11:03:15;;;;;;;0.20;0.20;;;;;;;;;;6293156;28;20179;-79
2023/12/05 11:06:15;;;;;;;0.20;0.20;;;;;;;;;;6293002;28;20471;-79
2023/12/05 11:09:16;;;;;;;0.20;0.20;;;;;;;;;;6277062;28;20020;-80
2023/12/05 11:12:17;;;;;;;0.20;0.20;;;;;;;;;;6303501;28;20534;-72
2023/12/05 11:15:22;;;;;;;0.20;0.20;;;;;;;;;;6300074;28;20029;-72
2023/12/05 11:18:25;;;;;;;0.20;0.20;;;;;;;;;;6291929;28;20008;-72
2023/12/05 11:21:36;;;;;;;0.20;0.20;;;;;;;;;;6292041;28;20075;-71
2023/12/05 11:24:55;;;;;;;0.20;0.20;;;;;;;;;;6293402;28;20031;-72
2023/12/05 11:28:14;;;;;;;0.20;0.20;;;;;;;;;;6293070;28;20055;-72
2023/12/05 11:31:24;;;;;;;0.20;0.20;;;;;;;;;;6286799;28;20214;-72
2023/12/05 11:34:43;;;;;;;0.20;0.20;;;;;;;;;;6278708;28;20094;-72
2023/12/05 11:38:06;;;;;;;0.20;0.20;;;;;;;;;;6285120;28;20028;-72
2023/12/05 11:41:11;;;;;;;0.20;0.20;;;;;;;;;;6299744;28;20462;-71
2023/12/05 11:44:11;;;;;;;0.20;0.20;;;;;;;;;;6298431;28;20386;-71
2023/12/05 11:47:14;;;;;;;0.20;0.20;;;;;;;;;;6294250;28;20035;-71
2023/12/05 11:50:14;;;;;;;0.20;0.20;;;;;;;;;;6292039;28;20025;-71
2023/12/05 11:53:17;;;;;;;0.20;0.20;;;;;;;;;;6287862;28;20106;-71
2023/12/05 11:56:19;;;;;;;0.20;0.20;;;;;;;;;;6292333;28;20021;-71
2023/12/05 11:59:23;;;;;;;0.20;0.20;;;;;;;;;;6292161;28;20017;-71
2023/12/05 12:02:39;;;;;;;0.20;0.20;;;;;;;;;;6304110;28;20258;-71
2023/12/05 12:05:39;;;;;;;0.20;0.20;;;;;;;;;;6289941;28;20532;-72
2023/12/05 12:08:41;;;;;;;0.20;0.20;;;;;;;;;;6298527;28;20032;-72
2023/12/05 12:11:42;;;;;;;0.20;0.20;;;;;;;;;;6285718;28;20023;-72
2023/12/05 12:14:43;;;;;;;0.20;0.20;;;;;;;;;;6292580;28;20395;-72
2023/12/05 12:17:44;;;;;;;0.20;0.20;;;;;;;;;;6292683;28;20533;-72
2023/12/05 12:20:48;;;;;;;0.20;0.20;;;;;;;;;;6288947;28;20020;-72
2023/12/05 12:23:54;;;;;;;0.20;0.20;;;;;;;;;;6291395;28;20020;-79
2023/12/05 12:26:55;;;;;;;0.20;0.20;;;;;;;;;;6291799;28;20020;-79
2023/12/05 12:29:57;;;;;;;0.20;0.20;;;;;;;;;;6290947;28;20027;-79
2023/12/05 12:33:09;;;;;;;0.20;0.20;;;;;;;;;;6289809;28;20063;-79
2023/12/05 12:36:09;;;;;;;;;;;;;;;;;;6277498;28;20525;-79
2023/12/05 12:39:10;;;;;;;0.20;0.20;;;;;;;;;;6299041;28;20030;-79
2023/12/05 12:42:13;;;;;;;0.20;0.20;;;;;;;;;;6292055;28;20099;-80
2023/12/05 12:45:13;;;;;;;0.20;0.20;;;;;;;;;;6273715;28;20020;-80
2023/12/05 12:48:13;;;;;;;0.20;0.20;;;;;;;;;;6296215;28;20027;-80
2023/12/05 12:51:14;;;;;;;0.20;0.20;;;;;;;;;;6297967;28;20017;-81
2023/12/05 12:54:15;;;;;;;0.20;0.20;;;;;;;;;;6297442;28;20032;-80
2023/12/05 12:57:15;;;;;;;0.20;0.20;;;;;;;;;;6296555;28;20095;-81
2023/12/05 13:00:17;;;;;;;0.20;0.20;;;;;;;;;;6279849;28;20024;-82
2023/12/05 13:03:17;;;;;;;;;;;;;;;;;;6294955;28;20037;-82
2023/12/05 13:06:17;;;;;;;0.20;0.20;;;;;;;;;;6291499;28;19916;-82
2023/12/05 13:09:23;;;;;;;0.20;0.20;;;;;;;;;;6286320;28;20024;-82
2023/12/05 13:12:23;;;;;;;0.20;0.20;;;;;;;;;;6278575;28;20021;-83
2023/12/05 13:15:27;;;;;;;0.20;0.20;;;;;;;;;;6291989;28;20024;-84
2023/12/05 13:18:39;;;;;;;0.20;0.20;;;;;;;;;;6287395;28;20013;-84
2023/12/05 13:21:39;;;;;;;;;;;;;;;;;;6290592;28;20021;-84
2023/12/05 13:24:40;;;;;;;0.20;0.20;;;;;;;;;;6290421;28;19909;-84
2023/12/05 13:27:40;;;;;;;0.17;0.17;;;;;;;;;;6287202;28;20035;-84
2023/12/05 13:30:41;;;;;;;0.10;0.10;;;;;;;;;;6285603;28;20067;-84
2023/12/05 13:33:41;;;;;;;0.20;0.20;;;;;;;;;;6273449;28;20033;-71
2023/12/05 13:36:42;;;;;;;0.20;0.20;;;;;;;;;;6284952;28;20486;-74
2023/12/05 13:39:42;;;;;;;0.10;0.10;;;;;;;;;;6261313;28;20426;-74
2023/12/05 13:42:42;;;;;;;0.20;0.20;;;;;;;;;;6293246;28;20428;-74
2023/12/05 13:45:43;;;;;;;0.20;0.20;;;;;;;;;;6290521;28;20028;-76
2023/12/05 13:48:44;;;;;;;0.20;0.20;;;;;;;;;;6295488;28;20017;-73
2023/12/05 13:51:45;;;;;;;0.20;0.20;;;;;;;;;;6295017;28;20062;-72
2023/12/05 13:54:46;;;;;;;0.20;0.20;;;;;;;;;;6279043;28;20029;-75
2023/12/05 13:57:46;;;;;;;0.20;0.20;;;;;;;;;;6292180;28;20017;-72
2023/12/05 14:00:46;;;;;;;0.20;0.20;;;;;;;;;;6291240;28;20023;-72
2023/12/05 14:03:47;;;;;;;0.20;0.20;;;;;;;;;;6285459;28;20460;-82
2023/12/05 14:06:47;;;;;;;0.20;0.20;;;;;;;;;;6293912;28;20032;-82
2023/12/05 14:09:47;;;;;;;0.30;0.30;;;;;;;;;;6295680;28;20032;-82
2023/12/05 14:12:47;;;;;;;0.30;0.30;;;;;;;;;;6295034;28;20452;-83
2023/12/05 14:15:48;;;;;;;0.20;0.20;;;;;;;;;;6298164;28;20032;-82
2023/12/05 14:18:49;;;;;;;0.20;0.20;;;;;;;;;;6295097;28;20024;-83
2023/12/05 14:21:49;;;;;;;0.30;0.30;;;;;;;;;;6294300;28;20024;-83
2023/12/05 14:24:49;;;;;;;0.20;0.20;;;;;;;;;;6292694;28;20569;-83
2023/12/05 14:27:50;;;;;;;0.20;0.20;;;;;;;;;;6293767;28;20021;-83
2023/12/05 14:30:50;;;;;;;0.30;0.30;;;;;;;;;;6295523;28;20099;-83
2023/12/05 14:33:50;;;;;;;0.30;0.30;;;;;;;;;;6291904;28;20115;-83
2023/12/05 14:36:50;;;;;;;0.27;0.27;;;;;;;;;;6306256;28;20091;-83
2023/12/05 14:39:51;;;;;;;0.23;0.23;;;;;;;;;;6298744;28;20039;-83
2023/12/05 14:42:51;;;;;;;0.30;0.30;;;;;;;;;;6307079;28;20024;-83
2023/12/05 14:45:52;;;;;;;0.30;0.30;;;;;;;;;;6296345;28;20026;-84
2023/12/05 14:48:52;;;;;;;0.40;0.40;;;;;;;;;;6306379;28;20035;-83
2023/12/05 14:51:52;;;;;;;0.30;0.30;;;;;;;;;;6292133;28;20048;-82
2023/12/05 14:54:52;;;;;;;0.30;0.30;;;;;;;;;;6296546;28;20028;-82
2023/12/05 14:57:53;;;;;;;0.30;0.30;;;;;;;;;;6289258;28;20073;-82
2023/12/05 15:00:58;;;;;;;0.23;0.23;;;;;;;;;;6293706;28;20009;-80
2023/12/05 15:03:58;;;;;;;0.30;0.30;;;;;;;;;;6287593;28;20053;-80
2023/12/05 15:06:59;;;;;;;0.30;0.30;;;;;;;;;;6294164;28;20013;-80
2023/12/05 15:09:59;;;;;;;0.30;0.30;;;;;;;;;;6293413;28;20024;-79
2023/12/05 15:12:59;;;;;;;0.30;0.30;;;;;;;;;;6293691;28;20533;-79
2023/12/05 15:15:59;;;;;;;0.30;0.30;;;;;;;;;;6308542;28;20052;-78
2023/12/05 15:19:00;;;;;;;0.50;0.50;;;;;;;;;;6301127;28;20032;-78
2023/12/05 15:22:01;;;;;;;0.30;0.30;;;;;;;;;;6289739;28;20024;-78
2023/12/05 15:25:01;;;;;;;0.30;0.30;;;;;;;;;;6293320;28;20079;-77
2023/12/05 15:28:01;;;;;;;0.30;0.30;;;;;;;;;;6304569;28;20032;-77
2023/12/05 15:31:01;;;;;;;0.30;0.30;;;;;;;;;;6307191;28;20103;-77
2023/12/05 15:34:02;;;;;;;0.30;0.30;;;;;;;;;;6294614;28;20071;-77
2023/12/05 15:37:02;;;;;;;0.30;0.30;;;;;;;;;;6289902;28;20047;-76
2023/12/05 15:40:02;;;;;;;0.30;0.30;;;;;;;;;;6285285;28;20040;-76
2023/12/05 15:43:04;;;;;;;0.30;0.30;;;;;;;;;;6307554;28;20024;-76
2023/12/05 15:46:04;;;;;;;;;;;;;;;;;;6307519;28;20504;-76
2023/12/05 15:49:05;;;;;;;0.40;0.40;;;;;;;;;;6292867;28;19958;-75
2023/12/05 15:52:06;;;;;;;0.30;0.30;;;;;;;;;;6290388;28;20119;-74
2023/12/05 15:55:06;;;;;;;0.32;0.32;;;;;;;;;;6292652;28;20029;-75
2023/12/05 15:58:06;;;;;;;0.40;0.40;;;;;;;;;;6292988;28;20024;-75
2023/12/05 16:01:07;;;;;;;0.30;0.30;;;;;;;;;;6294319;28;20012;-75
2023/12/05 16:04:07;;;;;;;0.40;0.40;;;;;;;;;;6292712;28;20048;-75
2023/12/05 16:07:09;;;;;;;0.30;0.30;;;;;;;;;;6273341;28;20024;-75
2023/12/05 16:10:10;;;;;;;0.30;0.30;;;;;;;;;;6292606;28;20023;-75
2023/12/05 16:13:11;;;;;;;0.40;0.40;;;;;;;;;;6292902;28;20017;-75
2023/12/05 16:16:11;;;;;;;0.30;0.30;;;;;;;;;;6298747;28;20553;-76
2023/12/05 16:19:12;;;;;;;0.30;0.30;;;;;;;;;;6301128;28;20020;-76
2023/12/05 16:22:12;;;;;;;0.30;0.30;;;;;;;;;;6292560;28;20020;-74
2023/12/05 16:25:13;;;;;;;0.30;0.30;;;;;;;;;;6295538;28;20395;-74
2023/12/05 16:28:13;;;;;;;0.30;0.30;;;;;;;;;;6291444;28;20074;-73
2023/12/05 16:31:14;;;;;;;0.30;0.30;;;;;;;;;;6293986;28;20028;-74
2023/12/05 16:34:14;;;;;;;0.30;0.30;;;;;;;;;;6301392;28;20020;-74
2023/12/05 16:37:14;;;;;;;0.30;0.30;;;;;;;;;;6279807;28;20028;-74
2023/12/05 16:40:14;;;;;;;0.40;0.40;;;;;;;;;;6305582;28;20008;-74
2023/12/05 16:43:15;;;;;;;0.40;0.40;;;;;;;;;;6297396;28;20027;-73
2023/12/05 16:46:15;;;;;;;0.40;0.40;;;;;;;;;;6258518;28;20021;-73
2023/12/05 16:49:15;;;;;;;0.33;0.33;;;;;;;;;;6271504;28;20029;-73
2023/12/05 16:52:15;;;;;;;0.40;0.40;;;;;;;;;;6290572;28;20386;-73
2023/12/05 16:55:16;;;;;;;0.30;0.30;;;;;;;;;;6290477;28;20099;-73
2023/12/05 16:58:18;;;;;;;0.50;0.50;;;;;;;;;;6291402;28;20043;-72
2023/12/05 17:01:19;;;;;;;0.40;0.40;;;;;;;;;;6303586;28;20016;-72
2023/12/05 17:04:19;;;;;;;0.40;0.40;;;;;;;;;;6289773;28;20044;-83
2023/12/05 17:07:19;;;;;;;0.40;0.40;;;;;;;;;;6291091;28;20052;-84
2023/12/05 17:10:19;;;;;;;0.40;0.40;;;;;;;;;;6277854;28;20371;-83
2023/12/05 17:13:20;;;;;;;0.40;0.40;;;;;;;;;;6290641;28;20025;-86
2023/12/05 17:16:20;;;;;;;0.40;0.40;;;;;;;;;;6289573;28;20028;-87
2023/12/05 17:19:20;;;;;;;0.47;0.47;;;;;;;;;;6302750;28;20378;-86
2023/12/05 17:22:25;;;;;;;0.50;0.50;;;;;;;;;;6292787;28;20029;-86
2023/12/05 17:25:25;;;;;;;0.40;0.40;;;;;;;;;;6291745;28;20106;-86
2023/12/05 17:28:26;;;;;;;0.40;0.40;;;;;;;;;;6291271;28;20021;-87
2023/12/05 17:31:27;;;;;;;0.40;0.40;;;;;;;;;;6296335;28;20027;-87
2023/12/05 17:34:27;;;;;;;0.40;0.40;;;;;;;;;;6286671;28;20036;-85
2023/12/05 17:37:30;;;;;;;0.40;0.40;;;;;;;;;;6290314;28;20028;-86
2023/12/05 17:40:31;;;;;;;0.32;0.32;;;;;;;;;;6282839;28;20052;-85
2023/12/05 17:43:31;;;;;;;0.30;0.30;;;;;;;;;;6291887;28;20035;-72
2023/12/05 17:46:31;;;;;;;0.40;0.40;;;;;;;;;;6301282;28;20147;-72
2023/12/05 17:49:31;;;;;;;0.40;0.40;;;;;;;;;;6286853;28;20048;-72
2023/12/05 17:52:32;;;;;;;0.43;0.43;;;;;;;;;;6288246;28;20024;-72
2023/12/05 17:55:32;;;;;;;0.43;0.43;;;;;;;;;;6278612;28;20047;-72
2023/12/05 17:58:33;;;;;;;0.47;0.47;;;;;;;;;;6278499;28;20032;-72
2023/12/05 18:01:33;;;;;;;0.40;0.40;;;;;;;;;;6283362;28;20013;-72
2023/12/05 18:04:33;;;;;;;0.40;0.40;;;;;;;;;;6277380;28;20730;-72
2023/12/05 18:07:34;;;;;;;0.40;0.40;;;;;;;;;;6275998;28;20063;-72